Time,TemperatureF,DewpointF,PressureIn,WindDirection,WindDirectionDegrees,WindSpeedMPH,WindSpeedGustMPH,Humidity,HourlyPrecipIn,Conditions,Clouds,dailyrainin,SoftwareType,DateUTC
2013-03-04 00:01:00,46.0,45.0,-100.00,NNE,16,-999.0,-999.0,97,-99.99,,,-99.99,,2013-03-04 08:01:00,
2013-03-04 00:11:00,46.0,45.0,-100.00,NNE,16,-999.0,-999.0,97,-99.99,,,-99.99,,2013-03-04 08:11:00,
2013-03-04 00:21:00,46.0,45.0,-100.00,NNE,16,-999.0,-999.0,97,-99.99,,,-99.99,,2013-03-04 08:21:00,
2013-03-04 00:31:00,46.0,45.0,-100.00,NNE,16,-999.0,-999.0,97,-99.99,,,-99.99,,2013-03-04 08:31:00,
2013-03-04 00:42:00,46.0,45.0,-100.00,NNE,16,-999.0,-999.0,97,-99.99,,,-99.99,,2013-03-04 08:42:00,
2013-03-04 00:52:00,47.0,46.0,-100.00,NNE,16,-999.0,-999.0,96,-99.99,,,-99.99,,2013-03-04 08:52:00,
2013-03-04 01:01:00,47.0,46.0,-100.00,NNE,16,-999.0,-999.0,96,-99.99,,,-99.99,,2013-03-04 09:01:00,
2013-03-04 01:11:00,47.0,46.0,-100.00,NNE,16,-999.0,-999.0,96,-99.99,,,-99.99,,2013-03-04 09:11:00,
2013-03-04 01:21:00,46.0,45.0,-100.00,North,-999,-999.0,-999.0,95,-99.99,,,-99.99,,2013-03-04 09:21:00,
2013-03-04 01:31:00,46.0,45.0,-100.00,North,-999,-999.0,-999.0,95,-99.99,,,-99.99,,2013-03-04 09:31:00,
2013-03-04 01:42:00,46.0,45.0,-100.00,North,-999,-999.0,-999.0,95,-99.99,,,-99.99,,2013-03-04 09:42:00,
2013-03-04 01:52:00,47.0,45.0,-100.00,NNE,12,-999.0,-999.0,92,-99.99,,,-99.99,,2013-03-04 09:52:00,
2013-03-04 02:01:00,47.0,45.0,-100.00,NNE,12,-999.0,-999.0,92,-99.99,,,-99.99,,2013-03-04 10:01:00,
2013-03-04 02:11:00,47.0,45.0,-100.00,NNE,12,-999.0,-999.0,92,-99.99,,,-99.99,,2013-03-04 10:11:00,
2013-03-04 02:21:00,46.0,45.0,-100.00,NNE,12,-999.0,-999.0,96,-99.99,,,-99.99,,2013-03-04 10:21:00,
2013-03-04 02:31:00,46.0,45.0,-100.00,NNE,12,-999.0,-999.0,96,-99.99,,,-99.99,,2013-03-04 10:31:00,
2013-03-04 02:42:00,46.0,45.0,-100.00,NNE,12,-999.0,-999.0,96,-99.99,,,-99.99,,2013-03-04 10:42:00,
2013-03-04 02:52:00,44.0,43.0,-100.00,NNE,12,-999.0,-999.0,98,-99.99,,,0.00,,2013-03-04 10:52:00,
2013-03-04 03:01:00,44.0,43.0,-100.00,NNE,12,-999.0,-999.0,98,-99.99,,,0.00,,2013-03-04 11:01:00,
2013-03-04 03:11:00,44.0,43.0,-100.00,NNE,12,-999.0,-999.0,98,-99.99,,,0.00,,2013-03-04 11:11:00,
2013-03-04 03:21:00,45.0,44.0,-100.00,NNE,12,-999.0,-999.0,97,-99.99,,,-99.99,,2013-03-04 11:21:00,
2013-03-04 03:31:00,45.0,44.0,-100.00,NNE,12,-999.0,-999.0,97,-99.99,,,-99.99,,2013-03-04 11:31:00,
2013-03-04 03:42:00,45.0,44.0,-100.00,NNE,12,-999.0,-999.0,97,-99.99,,,-99.99,,2013-03-04 11:42:00,
2013-03-04 03:52:00,45.0,44.0,-100.00,NE,35,-999.0,-999.0,98,-99.99,,,-99.99,,2013-03-04 11:52:00,
2013-03-04 04:01:00,45.0,44.0,-100.00,NE,35,-999.0,-999.0,98,-99.99,,,-99.99,,2013-03-04 12:01:00,
2013-03-04 04:11:00,45.0,44.0,-100.00,NE,35,-999.0,-999.0,98,-99.99,,,-99.99,,2013-03-04 12:11:00,
2013-03-04 04:22:00,45.0,-99.9,-100.00,NE,35,-999.0,-999.0,-999,-99.99,,,-99.99,,2013-03-04 12:22:00,
2013-03-04 04:32:00,45.0,-99.9,-100.00,NE,35,-999.0,-999.0,-999,-99.99,,,-99.99,,2013-03-04 12:32:00,
2013-03-04 04:43:00,45.0,-99.9,-100.00,NE,35,-999.0,-999.0,-999,-99.99,,,-99.99,,2013-03-04 12:43:00,
2013-03-04 05:21:00,42.0,42.0,-100.00,NE,35,-999.0,-999.0,100,-99.99,,,-99.99,,2013-03-04 13:21:00,
2013-03-04 05:31:00,42.0,42.0,-100.00,NE,35,-999.0,-999.0,100,-99.99,,,-99.99,,2013-03-04 13:31:00,
2013-03-04 05:42:00,42.0,42.0,-100.00,NE,35,-999.0,-999.0,100,-99.99,,,-99.99,,2013-03-04 13:42:00,
2013-03-04 05:52:00,43.0,43.0,-100.00,NE,35,-999.0,-999.0,100,-99.99,,,-99.99,,2013-03-04 13:52:00,
2013-03-04 06:01:00,43.0,43.0,-100.00,NE,35,-999.0,-999.0,100,-99.99,,,-99.99,,2013-03-04 14:01:00,
2013-03-04 06:11:00,43.0,43.0,-100.00,NE,35,-999.0,-999.0,100,-99.99,,,-99.99,,2013-03-04 14:11:00,
2013-03-04 06:22:00,43.0,43.0,-100.00,NE,35,-999.0,-999.0,100,-99.99,,,-99.99,,2013-03-04 14:22:00,
2013-03-04 06:31:00,43.0,43.0,-100.00,NE,35,-999.0,-999.0,100,-99.99,,,-99.99,,2013-03-04 14:31:00,
2013-03-04 06:42:00,43.0,43.0,-100.00,NE,35,-999.0,-999.0,100,-99.99,,,-99.99,,2013-03-04 14:42:00,
2013-03-04 06:52:00,44.0,44.0,-100.00,NE,35,-999.0,-999.0,100,-99.99,,,-99.99,,2013-03-04 14:52:00,
2013-03-04 07:01:00,44.0,44.0,-100.00,NE,35,-999.0,-999.0,100,-99.99,,,-99.99,,2013-03-04 15:01:00,
2013-03-04 07:11:00,44.0,44.0,-100.00,NE,35,-999.0,-999.0,100,-99.99,,,-99.99,,2013-03-04 15:11:00,
2013-03-04 07:21:00,45.0,45.0,-100.00,NE,34,-999.0,-999.0,100,-99.99,,,-99.99,,2013-03-04 15:21:00,
2013-03-04 07:31:00,45.0,45.0,-100.00,NE,34,-999.0,-999.0,100,-99.99,,,-99.99,,2013-03-04 15:31:00,
2013-03-04 07:42:00,45.0,45.0,-100.00,NE,34,-999.0,-999.0,100,-99.99,,,-99.99,,2013-03-04 15:42:00,
2013-03-04 07:52:00,45.0,45.0,-100.00,NE,34,-999.0,-999.0,100,-99.99,,,-99.99,,2013-03-04 15:52:00,
2013-03-04 14:22:00,62.0,53.0,-100.00,South,175,-999.0,-999.0,72,-99.99,,,-99.99,,2013-03-04 22:22:00,
2013-03-04 14:32:00,62.0,53.0,-100.00,South,175,-999.0,-999.0,72,-99.99,,,-99.99,,2013-03-04 22:32:00,
2013-03-04 14:42:00,62.0,53.0,-100.00,South,175,-999.0,-999.0,72,-99.99,,,-99.99,,2013-03-04 22:42:00,
2013-03-04 14:52:00,63.0,53.0,-100.00,SSW,211,-999.0,-999.0,69,-99.99,,,0.00,,2013-03-04 22:52:00,
2013-03-04 15:01:00,63.0,53.0,-100.00,SSW,211,-999.0,-999.0,69,-99.99,,,0.00,,2013-03-04 23:01:00,
2013-03-04 15:11:00,63.0,53.0,-100.00,SSW,211,-999.0,-999.0,69,-99.99,,,0.00,,2013-03-04 23:11:00,
2013-03-04 15:21:00,64.0,52.0,-100.00,West,259,-999.0,-999.0,65,-99.99,,,-99.99,,2013-03-04 23:21:00,
2013-03-04 15:31:00,64.0,52.0,-100.00,West,259,-999.0,-999.0,65,-99.99,,,-99.99,,2013-03-04 23:31:00,
2013-03-04 15:42:00,64.0,52.0,-100.00,West,259,-999.0,-999.0,65,-99.99,,,-99.99,,2013-03-04 23:42:00,
2013-03-04 15:52:00,63.0,52.0,-100.00,SW,220,-999.0,-999.0,67,-99.99,,,-99.99,,2013-03-04 23:52:00,
2013-03-04 16:01:00,63.0,52.0,-100.00,SW,220,-999.0,-999.0,67,-99.99,,,-99.99,,2013-03-05 00:01:00,
2013-03-04 16:11:00,63.0,52.0,-100.00,SW,220,-999.0,-999.0,67,-99.99,,,-99.99,,2013-03-05 00:11:00,
2013-03-04 16:21:00,63.0,52.0,-100.00,South,176,-999.0,-999.0,67,-99.99,,,-99.99,,2013-03-05 00:21:00,
2013-03-04 16:32:00,63.0,52.0,-100.00,South,176,-999.0,-999.0,67,-99.99,,,-99.99,,2013-03-05 00:32:00,
2013-03-04 16:42:00,63.0,52.0,-100.00,South,176,-999.0,-999.0,67,-99.99,,,-99.99,,2013-03-05 00:42:00,
2013-03-04 16:52:00,62.0,52.0,-100.00,SW,216,-999.0,-999.0,69,-99.99,,,-99.99,,2013-03-05 00:52:00,
2013-03-04 17:01:00,62.0,52.0,-100.00,SW,216,-999.0,-999.0,69,-99.99,,,-99.99,,2013-03-05 01:01:00,
2013-03-04 17:12:00,62.0,52.0,-100.00,SW,216,-999.0,-999.0,69,-99.99,,,-99.99,,2013-03-05 01:12:00,
2013-03-04 17:21:00,58.0,50.0,-100.00,SSW,196,-999.0,-999.0,75,-99.99,,,-99.99,,2013-03-05 01:21:00,
2013-03-04 17:32:00,58.0,50.0,-100.00,SSW,196,-999.0,-999.0,75,-99.99,,,-99.99,,2013-03-05 01:32:00,
2013-03-04 17:42:00,58.0,50.0,-100.00,SSW,196,-999.0,-999.0,75,-99.99,,,-99.99,,2013-03-05 01:42:00,
2013-03-04 17:52:00,55.0,50.0,-100.00,SSW,196,-999.0,-999.0,82,-99.99,,,-99.99,,2013-03-05 01:52:00,
2013-03-04 18:01:00,55.0,50.0,-100.00,SSW,196,-999.0,-999.0,82,-99.99,,,-99.99,,2013-03-05 02:01:00,
2013-03-04 18:11:00,55.0,50.0,-100.00,SSW,196,-999.0,-999.0,82,-99.99,,,-99.99,,2013-03-05 02:11:00,
2013-03-04 18:21:00,50.0,48.0,-100.00,SSW,196,-999.0,-999.0,93,-99.99,,,-99.99,,2013-03-05 02:21:00,
2013-03-04 18:31:00,50.0,48.0,-100.00,SSW,196,-999.0,-999.0,93,-99.99,,,-99.99,,2013-03-05 02:31:00,
2013-03-04 18:42:00,50.0,48.0,-100.00,SSW,196,-999.0,-999.0,93,-99.99,,,-99.99,,2013-03-05 02:42:00,
2013-03-04 18:52:00,50.0,48.0,-100.00,SSW,196,-999.0,-999.0,93,-99.99,,,-99.99,,2013-03-05 02:52:00,
2013-03-04 19:22:00,48.0,46.0,-100.00,North,11,-999.0,-999.0,93,-99.99,,,-99.99,,2013-03-05 03:22:00,
2013-03-04 19:31:00,49.0,43.0,-100.00,North,11,-999.0,-999.0,80,-99.99,,,-99.99,,2013-03-05 03:31:00,
2013-03-04 19:32:00,48.0,46.0,-100.00,North,11,-999.0,-999.0,93,-99.99,,,-99.99,,2013-03-05 03:32:00,
2013-03-04 19:42:00,48.0,46.0,-100.00,North,11,-999.0,-999.0,93,-99.99,,,-99.99,,2013-03-05 03:42:00,
2013-03-04 19:52:00,49.0,43.0,-100.00,North,11,-999.0,-999.0,80,-99.99,,,-99.99,,2013-03-05 03:52:00,
2013-03-04 20:01:00,49.0,43.0,-100.00,North,11,-999.0,-999.0,80,-99.99,,,-99.99,,2013-03-05 04:01:00,
2013-03-04 20:11:00,49.0,43.0,-100.00,North,11,-999.0,-999.0,80,-99.99,,,-99.99,,2013-03-05 04:11:00,
2013-03-04 20:21:00,49.0,43.0,-100.00,North,11,-999.0,-999.0,80,-99.99,,,-99.99,,2013-03-05 04:21:00,
2013-03-04 20:52:00,50.0,45.0,-100.00,NNE,18,-999.0,-999.0,83,-99.99,,,-99.99,,2013-03-05 04:52:00,
2013-03-04 21:01:00,50.0,45.0,-100.00,NNE,18,-999.0,-999.0,83,-99.99,,,-99.99,,2013-03-05 05:01:00,
2013-03-04 21:11:00,50.0,45.0,-100.00,NNE,18,-999.0,-999.0,83,-99.99,,,-99.99,,2013-03-05 05:11:00,
2013-03-04 22:22:00,50.0,46.0,-100.00,NNE,17,-999.0,-999.0,86,-99.99,,,-99.99,,2013-03-05 06:22:00,
2013-03-04 22:32:00,50.0,46.0,-100.00,NNE,17,-999.0,-999.0,86,-99.99,,,-99.99,,2013-03-05 06:32:00,
2013-03-04 22:42:00,50.0,46.0,-100.00,NNE,17,-999.0,-999.0,86,-99.99,,,-99.99,,2013-03-05 06:42:00,
2013-03-04 22:52:00,51.0,45.0,-100.00,NNE,23,-999.0,-999.0,81,-99.99,,,-99.99,,2013-03-05 06:52:00,
2013-03-04 23:01:00,51.0,45.0,-100.00,NNE,23,-999.0,-999.0,81,-99.99,,,-99.99,,2013-03-05 07:01:00,
2013-03-04 23:11:00,51.0,45.0,-100.00,NNE,23,-999.0,-999.0,81,-99.99,,,-99.99,,2013-03-05 07:11:00,
2013-03-04 23:21:00,49.0,45.0,-100.00,NE,35,-999.0,-999.0,86,-99.99,,,-99.99,,2013-03-05 07:21:00,
2013-03-04 23:31:00,49.0,45.0,-100.00,NE,35,-999.0,-999.0,86,-99.99,,,-99.99,,2013-03-05 07:31:00,
2013-03-04 23:42:00,49.0,45.0,-100.00,NE,35,-999.0,-999.0,86,-99.99,,,-99.99,,2013-03-05 07:42:00,
2013-03-04 23:52:00,48.0,44.0,-100.00,NE,35,-999.0,-999.0,86,-99.99,,,-99.99,,2013-03-05 07:52:00,